Time;durP1;ratioP1;P1;durP2;ratioP2;P2;SDS_P1;SDS_P2;PMS_P1;PMS_P2;Temp;Humidity;BMP_temperature;BMP_pressure;BME280_temperature;BME280_humidity;BME280_pressure;Samples;Min_cycle;Max_cycle;Signal;HPM_P1;HPM_P2
2023/04/25 00:02:22;;;;;;;0.50;0.50;;;;;;;14.30;100.00;98686.84;5031729;28;20211;-63
2023/04/25 00:04:50;;;;;;;0.50;0.50;;;;;;;14.24;100.00;98676.88;5031511;28;20256;-63
2023/04/25 00:07:17;;;;;;;0.50;0.50;;;;;;;14.18;100.00;98678.03;5029316;28;20205;-63
2023/04/25 00:09:44;;;;;;;0.40;0.40;;;;;;;14.13;100.00;98679.22;5011644;28;20253;-63
2023/04/25 00:12:11;;;;;;;0.57;0.57;;;;;;;14.15;100.00;98673.06;5023370;28;20217;-63
2023/04/25 00:14:37;;;;;;;0.50;0.50;;;;;;;14.05;100.00;98665.94;5018725;28;20652;-63
2023/04/25 00:17:05;;;;;;;0.50;0.50;;;;;;;14.06;100.00;98662.44;5031274;28;20201;-63
2023/04/25 00:19:32;;;;;;;0.50;0.50;;;;;;;14.10;100.00;98661.34;5031713;28;20212;-63
2023/04/25 00:22:00;;;;;;;0.53;0.53;;;;;;;13.97;100.00;98660.38;5031515;28;20209;-63
2023/04/25 00:24:27;;;;;;;0.50;0.50;;;;;;;13.87;100.00;98656.63;5015486;28;20645;-63
2023/04/25 00:26:54;;;;;;;0.40;0.40;;;;;;;13.95;100.00;98644.19;5029929;28;20209;-64
2023/04/25 00:29:20;;;;;;;0.50;0.50;;;;;;;13.90;100.00;98641.00;5026011;28;20586;-63
2023/04/25 00:31:47;;;;;;;0.47;0.47;;;;;;;13.91;100.00;98632.38;5013987;28;20588;-63
2023/04/25 00:34:14;;;;;;;0.40;0.40;;;;;;;13.97;100.00;98637.19;5024258;28;20660;-63
2023/04/25 00:36:41;;;;;;;0.50;0.50;;;;;;;14.00;100.00;98642.16;5031488;28;20217;-63
2023/04/25 00:39:09;;;;;;;0.57;0.57;;;;;;;14.08;100.00;98640.00;5017421;28;20214;-64
2023/04/25 00:41:36;;;;;;;0.50;0.50;;;;;;;14.00;100.00;98624.97;5015168;28;20198;-63
2023/04/25 00:44:04;;;;;;;0.60;0.60;;;;;;;14.14;100.00;98647.38;5030784;28;20618;-63
2023/04/25 00:46:32;;;;;;;0.40;0.40;;;;;;;14.16;100.00;98642.97;5030988;28;20294;-63
2023/04/25 00:48:59;;;;;;;0.50;0.50;;;;;;;14.20;100.00;98649.59;5030929;28;20200;-63
2023/04/25 00:51:27;;;;;;;0.50;0.50;;;;;;;14.25;100.00;98655.31;5031052;28;20206;-63
2023/04/25 00:53:54;;;;;;;0.40;0.40;;;;;;;14.35;100.00;98658.22;5016828;28;20260;-63
2023/04/25 00:56:23;;;;;;;0.50;0.50;;;;;;;14.41;100.00;98653.56;5011229;28;20210;-63
2023/04/25 00:58:53;;;;;;;0.40;0.40;;;;;;;14.46;100.00;98648.97;5014561;28;20585;-63
2023/04/25 01:01:20;;;;;;;0.60;0.60;;;;;;;14.53;100.00;98652.03;5014915;28;20208;-63
2023/04/25 01:03:49;;;;;;;0.40;0.40;;;;;;;14.58;100.00;98650.84;5021671;28;20295;-63
2023/04/25 01:06:18;;;;;;;0.50;0.50;;;;;;;14.62;100.00;98657.50;5030626;28;20231;-63
2023/04/25 01:08:45;;;;;;;0.60;0.60;;;;;;;14.61;100.00;98666.13;5020028;28;20228;-63
2023/04/25 01:11:12;;;;;;;0.50;0.50;;;;;;;14.48;100.00;98639.41;5029813;28;20205;-63
2023/04/25 01:13:40;;;;;;;0.53;0.53;;;;;;;14.62;100.00;98657.50;5030229;28;20201;-63
2023/04/25 01:16:07;;;;;;;0.40;0.40;;;;;;;14.64;100.00;98659.97;5030664;28;20197;-63
2023/04/25 01:18:34;;;;;;;0.50;0.50;;;;;;;14.67;100.00;98660.63;5021468;28;20205;-63
2023/04/25 01:21:09;;;;;;;0.40;0.40;;;;;;;14.70;100.00;98655.28;5029307;28;20211;-63
2023/04/25 01:23:37;;;;;;;0.50;0.50;;;;;;;14.65;100.00;98647.00;5024295;28;20210;-63
2023/04/25 01:26:04;;;;;;;0.37;0.37;;;;;;;14.69;100.00;98656.22;5013981;28;20715;-63
2023/04/25 01:28:32;;;;;;;0.50;0.50;;;;;;;14.72;100.00;98657.78;5024242;28;20215;-63
2023/04/25 01:31:00;;;;;;;0.60;0.60;;;;;;;14.60;100.00;98636.09;5030394;28;20226;-63
2023/04/25 01:33:27;;;;;;;0.43;0.43;;;;;;;14.76;100.00;98653.28;5030279;28;20212;-63
2023/04/25 01:35:54;;;;;;;0.40;0.40;;;;;;;14.73;100.00;98656.03;5030288;28;20205;-63
2023/04/25 01:38:22;;;;;;;0.50;0.50;;;;;;;14.72;100.00;98647.47;5028724;28;20687;-63
2023/04/25 01:40:51;;;;;;;0.40;0.40;;;;;;;14.71;100.00;98640.63;5020246;28;20206;-63
2023/04/25 01:43:18;;;;;;;0.43;0.43;;;;;;;14.71;100.00;98641.47;5020931;28;20205;-63
2023/04/25 01:45:45;;;;;;;0.40;0.40;;;;;;;14.69;100.00;98645.06;5010405;28;20287;-63
2023/04/25 01:48:14;;;;;;;0.63;0.63;;;;;;;14.69;100.00;98640.75;5011919;28;20277;-63
2023/04/25 01:50:41;;;;;;;0.50;0.50;;;;;;;14.69;100.00;98648.47;5010709;28;20687;-63
2023/04/25 01:53:10;;;;;;;0.50;0.50;;;;;;;14.64;100.00;98652.22;5013435;28;20205;-63
2023/04/25 01:55:40;;;;;;;0.40;0.40;;;;;;;14.55;100.00;98653.59;5014165;28;20718;-63
2023/04/25 01:58:09;;;;;;;0.47;0.47;;;;;;;14.41;100.00;98634.72;5031273;28;20198;-63
2023/04/25 02:00:37;;;;;;;0.60;0.60;;;;;;;14.45;100.00;98637.00;5025197;28;20233;-63
2023/04/25 02:03:04;;;;;;;0.50;0.50;;;;;;;14.45;100.00;98637.00;5023718;28;20198;-63
2023/04/25 02:05:36;;;;;;;0.57;0.57;;;;;;;14.44;100.00;98627.59;5025699;28;20232;-62
2023/04/25 02:08:04;;;;;;;0.40;0.40;;;;;;;14.46;100.00;98625.78;5034070;28;20243;-63
2023/04/25 02:10:30;;;;;;;0.43;0.43;;;;;;;14.49;100.00;98627.34;5033983;28;20245;-63
2023/04/25 02:12:59;;;;;;;0.40;0.40;;;;;;;14.51;100.00;98623.75;5023738;28;20590;-63
2023/04/25 02:15:26;;;;;;;0.57;0.57;;;;;;;14.46;100.00;98609.47;5013924;28;20196;-63
2023/04/25 02:17:53;;;;;;;0.43;0.43;;;;;;;14.51;100.00;98634.06;5033926;28;20678;-63
2023/04/25 02:20:21;;;;;;;0.50;0.50;;;;;;;14.53;100.00;98634.81;5022996;28;20730;-63
2023/04/25 02:22:48;;;;;;;0.40;0.40;;;;;;;14.53;100.00;98632.25;5018452;28;20637;-63
2023/04/25 02:25:15;;;;;;;0.50;0.50;;;;;;;14.54;100.00;98631.31;5023124;28;20231;-63
2023/04/25 02:27:42;;;;;;;0.60;0.60;;;;;;;14.41;100.00;98609.72;5025732;28;20205;-63
2023/04/25 02:30:11;;;;;;;0.67;0.67;;;;;;;14.56;100.00;98632.06;5033349;28;20296;-63
2023/04/25 02:32:38;;;;;;;0.50;0.50;;;;;;;14.56;100.00;98631.22;5033540;28;20200;-63
2023/04/25 02:35:06;;;;;;;0.50;0.50;;;;;;;14.53;100.00;98631.41;5033579;28;20256;-63
2023/04/25 02:37:34;;;;;;;0.50;0.50;;;;;;;14.53;100.00;98632.25;5033331;28;20263;-63
2023/04/25 02:40:01;;;;;;;0.50;0.50;;;;;;;14.49;100.00;98630.75;5033978;28;20209;-63
2023/04/25 02:42:28;;;;;;;0.40;0.40;;;;;;;14.48;100.00;98634.25;5033304;28;20216;-63
2023/04/25 02:44:55;;;;;;;0.53;0.53;;;;;;;14.47;100.00;98631.75;5025865;28;20229;-64
2023/04/25 02:47:23;;;;;;;0.50;0.50;;;;;;;14.36;100.00;98624.66;5013198;28;20198;-63
2023/04/25 02:49:50;;;;;;;0.50;0.50;;;;;;;14.41;100.00;98634.72;5014581;28;20205;-63
2023/04/25 02:52:17;;;;;;;0.50;0.50;;;;;;;14.41;100.00;98638.09;5025413;28;20201;-62
2023/04/25 02:54:43;;;;;;;0.60;0.60;;;;;;;14.40;100.00;98636.44;5020111;28;20653;-63
2023/04/25 02:57:10;;;;;;;0.40;0.40;;;;;;;14.39;100.00;98627.03;5033087;28;20202;-63
2023/04/25 02:59:37;;;;;;;0.50;0.50;;;;;;;14.39;100.00;98624.47;5017181;28;20208;-63
2023/04/25 03:02:04;;;;;;;0.40;0.40;;;;;;;14.37;100.00;98621.16;5016088;28;20692;-63
2023/04/25 03:04:33;;;;;;;0.43;0.43;;;;;;;14.36;100.00;98639.28;5026840;28;20204;-63
2023/04/25 03:07:00;;;;;;;0.60;0.60;;;;;;;14.34;100.00;98629.06;5022374;28;20268;-63
2023/04/25 03:09:27;;;;;;;0.40;0.40;;;;;;;14.35;100.00;98629.88;5018716;28;20202;-63
2023/04/25 03:11:54;;;;;;;0.50;0.50;;;;;;;14.36;100.00;98624.66;5032841;28;20209;-63
2023/04/25 03:14:21;;;;;;;0.50;0.50;;;;;;;14.30;100.00;98619.81;5033085;28;20205;-63
2023/04/25 03:16:48;;;;;;;0.60;0.60;;;;;;;14.25;100.00;98619.22;5032612;28;20200;-63
2023/04/25 03:19:15;;;;;;;0.40;0.40;;;;;;;14.24;100.00;98627.06;5032980;28;20602;-62
2023/04/25 03:21:44;;;;;;;0.63;0.63;;;;;;;14.24;100.00;98622.75;5032555;28;20299;-63
2023/04/25 03:24:11;;;;;;;0.47;0.47;;;;;;;14.26;100.00;98628.63;5032258;28;20213;-63
2023/04/25 03:26:38;;;;;;;0.40;0.40;;;;;;;14.29;100.00;98628.47;5032569;28;20240;-64
2023/04/25 03:29:05;;;;;;;0.43;0.43;;;;;;;14.30;100.00;98624.97;5032706;28;20662;-63
2023/04/25 03:31:32;;;;;;;0.53;0.53;;;;;;;14.27;100.00;98626.88;5032855;28;20205;-63
2023/04/25 03:33:58;;;;;;;0.43;0.43;;;;;;;14.28;100.00;98629.38;5018376;28;20216;-63
2023/04/25 03:36:25;;;;;;;0.63;0.63;;;;;;;14.31;100.00;98618.91;5017433;28;20216;-62
2023/04/25 03:38:53;;;;;;;0.50;0.50;;;;;;;14.34;100.00;98616.19;5032344;28;20205;-63
2023/04/25 03:41:20;;;;;;;0.50;0.50;;;;;;;14.32;100.00;98601.66;5032420;28;20261;-63
2023/04/25 03:43:47;;;;;;;0.60;0.60;;;;;;;14.27;100.00;98603.69;5024039;28;20198;-63
2023/04/25 03:46:14;;;;;;;0.60;0.60;;;;;;;14.26;100.00;98596.88;5029252;28;20221;-63
2023/04/25 03:48:41;;;;;;;0.40;0.40;;;;;;;14.27;100.00;98598.53;5029152;28;20209;-63
2023/04/25 03:51:07;;;;;;;0.40;0.40;;;;;;;14.20;100.00;98588.56;5032099;28;20205;-63
2023/04/25 03:53:34;;;;;;;0.67;0.67;;;;;;;14.24;100.00;98603.88;5031390;28;20300;-63
2023/04/25 03:56:02;;;;;;;0.43;0.43;;;;;;;14.05;100.00;98578.31;5015497;28;20256;-63
2023/04/25 03:58:29;;;;;;;0.60;0.60;;;;;;;14.18;100.00;98600.69;5015963;28;20570;-63
2023/04/25 04:00:56;;;;;;;0.40;0.40;;;;;;;14.13;100.00;98604.47;5031773;28;20268;-63
2023/04/25 04:03:22;;;;;;;0.40;0.40;;;;;;;14.12;100.00;98600.22;5021565;28;20666;-63
2023/04/25 04:05:50;;;;;;;0.50;0.50;;;;;;;14.11;100.00;98598.59;5025934;28;20233;-63
2023/04/25 04:08:17;;;;;;;0.57;0.57;;;;;;;14.12;100.00;98595.06;5031373;28;20209;-62
2023/04/25 04:10:43;;;;;;;0.63;0.63;;;;;;;14.13;100.00;98586.44;5026099;28;20214;-63
2023/04/25 04:13:12;;;;;;;0.50;0.50;;;;;;;14.16;100.00;98592.25;5015188;28;20205;-63
2023/04/25 04:15:38;;;;;;;3.80;1.17;;;;;;;14.18;100.00;98590.41;5022023;28;20197;-63
2023/04/25 04:18:06;;;;;;;0.70;0.70;;;;;;;14.22;100.00;98591.06;5030894;28;20203;-63
2023/04/25 04:20:32;;;;;;;0.53;0.53;;;;;;;14.30;100.00;98600.94;5031633;28;20223;-63
2023/04/25 04:22:59;;;;;;;0.50;0.50;;;;;;;14.35;100.00;98611.81;5021218;28;20268;-63
2023/04/25 04:25:26;;;;;;;0.53;0.53;;;;;;;14.35;100.00;98602.34;5020297;28;20240;-63
2023/04/25 04:27:54;;;;;;;0.53;0.53;;;;;;;14.37;100.00;98610.00;5015028;28;20203;-63
2023/04/25 04:30:24;;;;;;;0.57;0.57;;;;;;;14.37;100.00;98602.28;5030782;28;20201;-63
2023/04/25 04:32:51;;;;;;;0.60;0.60;;;;;;;14.43;100.00;98604.50;5023165;28;20238;-63
2023/04/25 04:35:18;;;;;;;0.40;0.40;;;;;;;14.47;100.00;98613.72;5031047;28;20278;-63
2023/04/25 04:37:45;;;;;;;0.57;0.57;;;;;;;14.52;100.00;98615.09;5030919;28;20215;-63
2023/04/25 04:40:15;;;;;;;0.50;0.50;;;;;;;14.53;100.00;98603.88;5031180;28;20630;-63
2023/04/25 04:42:42;;;;;;;0.50;0.50;;;;;;;14.57;100.00;98595.00;5030877;28;20688;-63
2023/04/25 04:45:09;;;;;;;0.40;0.40;;;;;;;14.59;100.00;98606.09;5031077;28;20226;-63
2023/04/25 04:47:39;;;;;;;0.70;0.70;;;;;;;14.62;100.00;98611.06;5026700;28;20696;-63
2023/04/25 04:50:07;;;;;;;0.43;0.43;;;;;;;14.62;100.00;98605.91;5030600;28;20197;-63
2023/04/25 04:52:33;;;;;;;0.50;0.50;;;;;;;14.64;100.00;98619.53;5014115;28;20273;-63
2023/04/25 04:55:00;;;;;;;0.50;0.50;;;;;;;14.52;100.00;98597.03;5023410;28;20621;-63
2023/04/25 04:57:27;;;;;;;0.60;0.60;;;;;;;14.64;100.00;98608.38;5030841;28;20204;-63
2023/04/25 04:59:54;;;;;;;0.40;0.40;;;;;;;14.63;100.00;98610.16;5021056;28;20204;-63
2023/04/25 05:02:20;;;;;;;0.60;0.60;;;;;;;14.62;100.00;98626.53;5024302;28;20208;-63
2023/04/25 05:04:50;;;;;;;0.53;0.53;;;;;;;14.58;100.00;98626.78;5010581;28;20203;-62
2023/04/25 05:07:17;;;;;;;0.53;0.53;;;;;;;14.64;100.00;98623.84;5010421;28;20269;-63
2023/04/25 05:09:43;;;;;;;0.60;0.60;;;;;;;14.66;100.00;98622.88;5029614;28;20216;-63
2023/04/25 05:12:10;;;;;;;0.47;0.47;;;;;;;14.68;100.00;98626.19;5024234;28;20687;-63
2023/04/25 05:14:39;;;;;;;0.60;0.60;;;;;;;14.76;100.00;98612.00;5019997;28;20210;-63
2023/04/25 05:17:08;;;;;;;0.50;0.50;;;;;;;14.84;100.00;98620.09;5030682;28;20750;-63
2023/04/25 05:19:35;;;;;;;0.70;0.70;;;;;;;14.91;100.00;98621.41;5030578;28;20215;-63
2023/04/25 05:22:03;;;;;;;0.50;0.50;;;;;;;14.91;100.00;98611.06;5029942;28;20204;-63
2023/04/25 05:24:30;;;;;;;0.40;0.40;;;;;;;15.00;100.00;98620.84;5023190;28;20195;-63
2023/04/25 05:26:57;;;;;;;0.60;0.60;;;;;;;15.04;100.00;98623.16;5016407;28;20223;-63
2023/04/25 05:29:24;;;;;;;0.50;0.50;;;;;;;15.10;100.00;98617.63;5018720;28;20703;-63
2023/04/25 05:31:50;;;;;;;0.43;0.43;;;;;;;15.17;100.00;98618.06;5030141;28;20205;-63
2023/04/25 05:34:17;;;;;;;0.53;0.53;;;;;;;15.21;100.00;98625.53;5016067;28;20259;-62
2023/04/25 05:36:44;;;;;;;0.50;0.50;;;;;;;15.25;100.00;98629.56;5030515;28;20661;-62
2023/04/25 05:39:12;;;;;;;0.53;0.53;;;;;;;15.27;100.00;98619.16;5030232;28;20594;-63
2023/04/25 05:41:39;;;;;;;0.40;0.40;;;;;;;15.28;100.00;98622.59;5030679;28;20205;-62
2023/04/25 05:44:06;;;;;;;0.50;0.50;;;;;;;15.21;100.00;98620.38;5020253;28;20246;-63
2023/04/25 05:46:33;;;;;;;0.47;0.47;;;;;;;15.25;100.00;98621.00;5015320;28;20232;-63
2023/04/25 05:49:00;;;;;;;0.50;0.50;;;;;;;15.28;100.00;98613.09;5023179;28;20208;-63
2023/04/25 05:51:27;;;;;;;0.40;0.40;;;;;;;15.26;100.00;98617.50;5014119;28;20197;-63
2023/04/25 05:53:54;;;;;;;0.67;0.67;;;;;;;15.20;100.00;98597.22;5030240;28;20209;-63
2023/04/25 05:56:22;;;;;;;0.37;0.37;;;;;;;15.39;100.00;98615.81;5030581;28;20197;-63
2023/04/25 05:58:49;;;;;;;0.50;0.50;;;;;;;15.44;100.00;98611.22;5017831;28;20198;-63
2023/04/25 06:01:15;;;;;;;0.50;0.50;;;;;;;15.47;100.00;98611.03;5029618;28;20203;-62
2023/04/25 06:03:43;;;;;;;0.50;0.50;;;;;;;15.48;100.00;98596.34;5019861;28;20201;-63
2023/04/25 06:06:10;;;;;;;0.37;0.37;;;;;;;15.58;100.00;98605.19;5021149;28;20272;-63
2023/04/25 06:08:37;;;;;;;0.40;0.40;;;;;;;15.65;100.00;98614.22;5029976;28;20567;-63
2023/04/25 06:11:04;;;;;;;0.77;0.77;;;;;;;15.70;100.00;98615.56;5030274;28;20660;-63
2023/04/25 06:13:32;;;;;;;0.50;0.50;;;;;;;15.80;100.00;98607.25;5030448;28;20635;-63
2023/04/25 06:15:59;;;;;;;0.50;0.50;;;;;;;15.87;100.00;98605.91;5029984;28;20255;-63
2023/04/25 06:18:26;;;;;;;0.37;0.37;;;;;;;15.92;100.00;98606.47;5029912;28;20205;-63
2023/04/25 06:20:53;;;;;;;0.57;0.57;;;;;;;16.09;100.00;98606.22;5029520;28;20267;-63
2023/04/25 06:23:20;;;;;;;0.50;0.50;;;;;;;16.29;100.00;98610.91;5029689;28;20205;-63
2023/04/25 06:25:47;;;;;;;0.60;0.60;;;;;;;16.46;100.00;98617.53;5030023;28;20240;-63
2023/04/25 06:28:13;;;;;;;0.50;0.50;;;;;;;16.62;100.00;98611.28;5029710;28;20212;-63
2023/04/25 06:30:42;;;;;;;0.50;0.50;;;;;;;16.95;100.00;98608.16;5029565;28;20302;-63
2023/04/25 06:33:09;;;;;;;0.50;0.50;;;;;;;17.37;100.00;98596.59;5029996;28;20666;-63
2023/04/25 06:35:36;;;;;;;0.50;0.50;;;;;;;17.84;100.00;98604.41;5029908;28;20618;-63
2023/04/25 06:38:03;;;;;;;0.60;0.60;;;;;;;18.24;100.00;98598.91;5029479;28;20206;-63
2023/04/25 06:40:29;;;;;;;0.50;0.50;;;;;;;18.66;100.00;98611.31;5030016;28;20213;-63
2023/04/25 06:42:56;;;;;;;0.40;0.40;;;;;;;18.94;100.00;98615.22;5032182;28;20213;-63
2023/04/25 06:45:23;;;;;;;0.30;0.30;;;;;;;19.19;100.00;98608.97;5033206;28;20215;-63
2023/04/25 06:47:51;;;;;;;0.33;0.33;;;;;;;19.40;96.47;98617.72;5033553;28;20219;-64
2023/04/25 06:50:18;;;;;;;0.50;0.50;;;;;;;19.46;95.92;98617.22;5032324;28;20215;-63
2023/04/25 06:52:44;;;;;;;0.40;0.40;;;;;;;19.30;94.18;98621.94;5032824;28;20208;-63
2023/04/25 06:55:11;;;;;;;0.40;0.40;;;;;;;19.29;95.28;98625.47;5033244;28;20210;-63
2023/04/25 06:57:38;;;;;;;0.40;0.40;;;;;;;19.30;93.92;98607.19;5032739;28;20201;-63
2023/04/25 07:00:08;;;;;;;0.63;0.63;;;;;;;19.54;93.22;98622.66;5032470;28;20218;-63
2023/04/25 07:02:35;;;;;;;0.40;0.40;;;;;;;19.22;91.20;98587.97;5032870;28;20210;-63
2023/04/25 07:05:03;;;;;;;0.30;0.30;;;;;;;19.34;92.90;98618.16;5033300;28;20211;-63
2023/04/25 07:07:30;;;;;;;0.40;0.40;;;;;;;19.41;92.24;98613.34;5032869;28;20226;-63
2023/04/25 07:09:57;;;;;;;0.47;0.47;;;;;;;19.60;91.96;98623.94;5026558;28;20207;-63
2023/04/25 07:12:24;;;;;;;0.50;0.50;;;;;;;19.76;92.39;98613.97;5021847;28;20640;-63
2023/04/25 07:14:51;;;;;;;0.43;0.43;;;;;;;19.76;91.44;98617.41;5033167;28;20200;-63
2023/04/25 07:17:17;;;;;;;0.30;0.30;;;;;;;19.67;90.05;98614.72;5032978;28;20554;-63
2023/04/25 07:19:44;;;;;;;0.70;0.70;;;;;;;19.78;90.67;98615.50;5028444;28;20207;-63
2023/04/25 07:22:12;;;;;;;2.60;1.00;;;;;;;20.04;89.41;98616.00;5013117;28;20196;-63
2023/04/25 07:24:40;;;;;;;0.67;0.67;;;;;;;20.17;89.87;98615.81;5021190;28;20204;-63
2023/04/25 07:27:07;;;;;;;0.40;0.40;;;;;;;20.30;90.52;98613.91;5019261;28;20701;-63
2023/04/25 07:29:37;;;;;;;0.47;0.47;;;;;;;20.42;90.37;98597.28;5030579;28;20672;-63
2023/04/25 07:32:04;;;;;;;0.40;0.40;;;;;;;20.66;87.53;98605.66;5018128;28;20197;-63
2023/04/25 07:34:31;;;;;;;0.40;0.40;;;;;;;20.67;85.13;98603.88;5014095;28;20663;-63
2023/04/25 07:36:59;;;;;;;0.40;0.40;;;;;;;20.62;86.10;98585.19;5014698;28;20401;-63
2023/04/25 07:39:27;;;;;;;0.40;0.40;;;;;;;20.82;85.61;98603.41;5031712;28;20700;-63
2023/04/25 07:41:54;;;;;;;0.60;0.60;;;;;;;20.97;83.67;98593.44;5032357;28;20207;-63
2023/04/25 07:44:21;;;;;;;0.50;0.50;;;;;;;20.85;84.72;98603.16;5026199;28;20263;-63
2023/04/25 07:46:48;;;;;;;0.40;0.40;;;;;;;20.80;83.97;98596.69;5012399;28;20221;-63
2023/04/25 07:49:15;;;;;;;0.40;0.40;;;;;;;20.88;86.24;98595.06;5018916;28;20608;-63
2023/04/25 07:51:43;;;;;;;0.40;0.40;;;;;;;21.10;85.42;98582.84;5021194;28;20221;-63
2023/04/25 07:54:09;;;;;;;0.40;0.40;;;;;;;21.10;81.93;98582.84;5030696;28;20205;-63
2023/04/25 07:56:38;;;;;;;0.40;0.40;;;;;;;20.97;84.56;98582.22;5031596;28;20208;-63
2023/04/25 07:59:05;;;;;;;0.40;0.40;;;;;;;20.78;83.85;98575.97;5024839;28;20289;-63
2023/04/25 08:01:31;;;;;;;0.40;0.40;;;;;;;21.10;84.72;98573.22;5012475;28;20197;-63
2023/04/25 08:03:58;;;;;;;0.40;0.40;;;;;;;21.26;82.51;98588.41;5031868;28;20209;-62
2023/04/25 08:06:25;;;;;;;0.30;0.30;;;;;;;21.50;83.47;98581.03;5028538;28;20236;-63
2023/04/25 08:08:52;;;;;;;0.30;0.30;;;;;;;21.63;80.90;98591.22;5031463;28;20300;-63
2023/04/25 08:11:19;;;;;;;0.30;0.30;;;;;;;21.79;86.72;98602.78;5031826;28;20204;-63
2023/04/25 08:13:47;;;;;;;0.30;0.30;;;;;;;21.87;85.87;98602.09;5022668;28;20264;-63
2023/04/25 08:16:14;;;;;;;0.40;0.40;;;;;;;21.89;85.01;98580.16;5020618;28;20202;-63
2023/04/25 08:18:40;;;;;;;0.30;0.30;;;;;;;21.97;81.50;98602.97;5012229;28;20636;-63
2023/04/25 08:21:08;;;;;;;0.53;0.53;;;;;;;21.63;83.13;98597.25;5030518;28;20714;-63
2023/04/25 08:23:35;;;;;;;0.40;0.40;;;;;;;21.70;82.57;98600.97;5031705;28;20216;-63
2023/04/25 08:26:02;;;;;;;0.30;0.30;;;;;;;21.98;83.68;98596.75;5027698;28;20193;-63
2023/04/25 08:28:29;;;;;;;0.30;0.30;;;;;;;21.89;81.46;98587.97;5023764;28;20229;-63
2023/04/25 08:30:57;;;;;;;0.30;0.30;;;;;;;22.17;81.27;98595.91;5020153;28;20582;-63
2023/04/25 08:33:24;;;;;;;0.20;0.20;;;;;;;22.32;82.89;98594.56;5017312;28;20838;-64
2023/04/25 08:35:51;;;;;;;0.40;0.40;;;;;;;22.34;84.10;98596.06;5018112;28;20197;-63
2023/04/25 08:38:19;;;;;;;0.40;0.40;;;;;;;22.35;81.28;98584.66;5031074;28;20206;-63
2023/04/25 08:40:51;;;;;;;0.30;0.30;;;;;;;22.03;80.70;98591.97;5028076;28;20209;-64
2023/04/25 08:43:19;;;;;;;0.30;0.30;;;;;;;22.02;81.68;98592.09;5019906;28;20237;-63
2023/04/25 08:45:47;;;;;;;0.20;0.20;;;;;;;22.00;85.74;98588.81;5026274;28;20197;-63
2023/04/25 08:48:16;;;;;;;0.47;0.47;;;;;;;22.05;84.39;98589.22;5031270;28;20223;-64
2023/04/25 08:50:50;;;;;;;0.30;0.30;;;;;;;22.02;84.22;98586.88;5028515;28;20229;-63
2023/04/25 08:53:19;;;;;;;0.30;0.30;;;;;;;21.77;83.38;98589.03;5025938;28;20240;-63
2023/04/25 08:55:47;;;;;;;0.40;0.40;;;;;;;21.84;84.02;98594.53;5031276;28;20237;-63
2023/04/25 08:58:14;;;;;;;0.70;0.70;;;;;;;21.74;86.93;98589.31;5030444;28;20217;-63
2023/04/25 09:00:41;;;;;;;0.40;0.40;;;;;;;21.64;88.85;98588.47;5030446;28;20293;-63
2023/04/25 09:03:09;;;;;;;0.27;0.27;;;;;;;21.66;85.97;98594.38;5022261;28;20272;-63
2023/04/25 09:05:37;;;;;;;0.30;0.30;;;;;;;21.67;83.01;98609.06;5030132;28;20232;-63
2023/04/25 09:08:05;;;;;;;0.40;0.40;;;;;;;21.56;84.33;98596.13;5012369;28;20655;-63
2023/04/25 09:10:32;;;;;;;0.30;0.30;;;;;;;21.33;85.62;98599.91;5026329;28;20705;-63
2023/04/25 09:13:08;;;;;;;0.30;0.30;;;;;;;21.16;88.21;98598.78;5018093;28;20217;-63
2023/04/25 09:15:48;;;;;;;0.50;0.50;;;;;;;21.17;88.92;98594.38;5019724;28;20637;-63
2023/04/25 09:18:23;;;;;;;0.40;0.40;;;;;;;21.06;90.93;98586.66;5011062;28;20229;-63
2023/04/25 09:20:52;;;;;;;0.40;0.40;;;;;;;20.91;91.27;98584.38;5022986;28;20291;-63
2023/04/25 09:23:21;;;;;;;0.40;0.40;;;;;;;20.90;95.43;98555.88;5022442;28;20196;-63
2023/04/25 09:25:50;;;;;;;0.33;0.33;;;;;;;20.99;94.92;98575.09;5021151;28;20284;-63
2023/04/25 09:28:17;;;;;;;0.30;0.30;;;;;;;20.78;87.84;98573.34;5013980;28;20216;-64
2023/04/25 09:30:46;;;;;;;0.43;0.43;;;;;;;20.86;90.13;98573.53;5011294;28;20200;-63
2023/04/25 09:33:13;;;;;;;0.40;0.40;;;;;;;20.94;88.52;98583.28;5010868;28;20259;-63
2023/04/25 09:35:42;;;;;;;0.50;0.50;;;;;;;20.83;89.24;98571.19;5023267;28;20586;-63
2023/04/25 09:38:12;;;;;;;0.30;0.30;;;;;;;20.66;89.71;98569.19;5025936;28;20199;-63
2023/04/25 09:40:42;;;;;;;0.53;0.53;;;;;;;20.84;89.85;98562.41;5028121;28;20247;-63
2023/04/25 09:43:20;;;;;;;0.50;0.50;;;;;;;21.10;86.28;98565.41;5017416;28;20204;-63
2023/04/25 09:45:47;;;;;;;0.30;0.30;;;;;;;21.35;86.21;98562.34;5018543;28;20287;-63
2023/04/25 09:48:18;;;;;;;0.40;0.40;;;;;;;21.47;78.61;98555.22;5010889;28;20344;-63
2023/04/25 09:50:45;;;;;;;0.30;0.30;;;;;;;21.84;87.56;98552.78;5010731;28;20337;-63
2023/04/25 09:53:13;;;;;;;0.30;0.30;;;;;;;22.11;84.27;98544.28;5011816;28;20206;-63
2023/04/25 09:55:42;;;;;;;0.30;0.30;;;;;;;22.23;78.59;98545.78;5018280;28;20210;-63
2023/04/25 09:58:12;;;;;;;0.30;0.30;;;;;;;22.23;77.73;98545.78;5022544;28;20205;-63
2023/04/25 10:00:40;;;;;;;0.30;0.30;;;;;;;22.12;78.25;98535.50;5010235;28;20208;-63
2023/04/25 10:03:07;;;;;;;0.40;0.40;;;;;;;22.24;79.07;98532.56;5020343;28;20206;-63
2023/04/25 10:05:37;;;;;;;0.30;0.30;;;;;;;22.34;77.99;98524.72;5010253;28;20232;-63
2023/04/25 10:08:04;;;;;;;0.30;0.30;;;;;;;22.44;77.06;98520.31;5021889;28;20712;-63
2023/04/25 10:10:36;;;;;;;0.60;0.33;;;;;;;22.72;77.50;98522.00;5030066;28;20229;-63
2023/04/25 10:13:04;;;;;;;0.30;0.30;;;;;;;22.84;78.23;98522.66;5028484;28;20236;-64
2023/04/25 10:15:32;;;;;;;0.33;0.33;;;;;;;22.98;73.67;98519.56;5029454;28;20202;-63
2023/04/25 10:17:59;;;;;;;0.30;0.30;;;;;;;23.19;76.21;98511.47;5021524;28;20205;-64
2023/04/25 10:20:26;;;;;;;0.40;0.40;;;;;;;23.15;72.59;98510.13;5026237;28;20217;-63
2023/04/25 10:22:57;;;;;;;0.30;0.30;;;;;;;23.24;71.04;98498.75;5027116;28;20202;-63
2023/04/25 10:25:24;;;;;;;0.40;0.40;;;;;;;23.06;71.21;98490.09;5019737;28;20286;-64
2023/04/25 10:27:53;;;;;;;0.20;0.20;;;;;;;23.29;73.76;98491.31;5032784;28;20210;-64
2023/04/25 10:30:20;;;;;;;0.30;0.30;;;;;;;23.29;75.09;98481.69;5033444;28;20201;-63
2023/04/25 10:32:49;;;;;;;0.40;0.40;;;;;;;23.33;75.81;98479.56;5022845;28;20194;-63
2023/04/25 10:35:18;;;;;;;0.30;0.30;;;;;;;23.50;72.56;98481.41;5027656;28;20582;-63
2023/04/25 10:38:04;;;;;;;0.30;0.30;;;;;;;23.21;69.59;98465.06;5018527;28;20765;-64
2023/04/25 10:40:31;;;;;;;0.20;0.20;;;;;;;23.36;71.62;98474.84;5022006;28;20655;-64
2023/04/25 10:43:38;;;;;;;0.30;0.30;;;;;;;23.41;66.51;98469.22;5031267;28;20198;-64
2023/04/25 10:46:14;;;;;;;0.30;0.30;;;;;;;23.48;69.55;98462.44;5030531;28;20305;-63
2023/04/25 10:48:47;;;;;;;0.40;0.40;;;;;;;23.51;65.98;98464.75;5024746;28;20294;-64
2023/04/25 10:51:19;;;;;;;0.30;0.30;;;;;;;23.61;66.15;98460.25;5029397;28;20296;-64
2023/04/25 10:53:46;;;;;;;0.40;0.40;;;;;;;23.81;64.64;98459.09;5021405;28;20692;-63
2023/04/25 10:56:17;;;;;;;0.20;0.20;;;;;;;23.81;68.12;98446.00;5032489;28;20297;-64
2023/04/25 10:58:46;;;;;;;0.27;0.27;;;;;;;23.61;64.45;98428.84;5017484;28;20256;-63
2023/04/25 11:01:14;;;;;;;0.30;0.30;;;;;;;23.81;65.47;98451.22;5022795;28;20201;-64
2023/04/25 11:03:43;;;;;;;0.50;0.50;;;;;;;23.99;66.31;98443.34;5013663;28;20202;-64
2023/04/25 11:06:18;;;;;;;0.20;0.20;;;;;;;24.00;71.55;98443.22;5020156;28;20231;-64
2023/04/25 11:08:50;;;;;;;0.70;0.70;;;;;;;24.08;62.69;98444.22;5013696;28;20245;-63
2023/04/25 11:11:17;;;;;;;0.30;0.30;;;;;;;24.05;58.20;98424.41;5013386;28;20236;-64
2023/04/25 11:13:48;;;;;;;0.20;0.20;;;;;;;23.85;61.77;98425.56;5027474;28;20299;-64
2023/04/25 11:16:15;;;;;;;0.30;0.30;;;;;;;23.60;59.51;98421.16;5030350;28;20288;-63
2023/04/25 11:18:42;;;;;;;0.30;0.30;;;;;;;23.38;63.92;98411.94;5013893;28;20658;-63
2023/04/25 11:21:09;;;;;;;0.30;0.30;;;;;;;23.57;60.24;98400.53;5026248;28;20201;-64
2023/04/25 11:23:36;;;;;;;0.30;0.30;;;;;;;23.65;59.97;98397.97;5013466;28;20194;-64
2023/04/25 11:26:03;;;;;;;0.33;0.33;;;;;;;23.77;65.03;98405.44;5027178;28;20205;-64
2023/04/25 11:28:31;;;;;;;0.33;0.33;;;;;;;23.76;57.88;98416.84;5014288;28;20743;-64
2023/04/25 11:30:59;;;;;;;0.40;0.40;;;;;;;23.63;57.74;98394.66;5013002;28;20719;-64
2023/04/25 11:33:26;;;;;;;0.30;0.30;;;;;;;23.67;60.78;98391.63;5015056;28;20785;-64